Nearby METAR Reports

Here are local weather reports from nearby weather stations and airports.

KHFD - Hartford/Brainar, Connecticut, USA
Distance from station: NE 5mi, 8km
Updated: Fri, 05/20/22 12:53am EDT
Mist, Mostly cloudy
Mist, Mostly cloudy
 Wind from S
Wind: S 6 mph , 9 km/h
Temperature: 54°F , 12°C
Dew Point: 52°F , 11°C
Humidity: 94%
Barometer: 29.85 inHg , 1010.8 hPa
Summary: Mist
Clouds: Mostly cloudy
Visibility: 3 miles , 5 km
Cloud details: Mostly cloudy 200 ft
2022/05/20 04:53 KHFD 200453Z AUTO 18005KT 3SM BR BKN002 12/11 A2985 RMK AO2 SLP109 T01220111 401670122
KMMK - Meriden, Connecticut, USA
Distance from station: SSW 13mi, 21km
Updated: Fri, 05/20/22 12:53am EDT
Mist, Overcast
Mist, Overcast
 Wind from calm
Wind: Calm
Temperature: 54°F , 12°C
Dew Point: 52°F , 11°C
Humidity: 94%
Barometer: 29.86 inHg , 1011.2 hPa
Summary: Mist
Clouds: Overcast
Visibility: 4 miles , 6 km
Cloud details: Overcast 200 ft
2022/05/20 04:53 KMMK 200453Z AUTO 00000KT 4SM BR OVC002 12/11 A2986 RMK AO2 SLP112 T01170111 401560117
 
KBDL - Windsor Locks, Connecticut, USA
Distance from station: N 17mi, 28km
Updated: Fri, 05/20/22 12:51am EDT
Mist, Overcast
Mist, Overcast
 Wind from S
Wind: S 8 mph , 13 km/h
Temperature: 54°F , 12°C
Dew Point: 52°F , 11°C
Humidity: 94%
Barometer: 29.85 inHg , 1010.8 hPa
Summary: Mist
Clouds: Overcast
Visibility: 1/4 mile , 0.4 km
Cloud details: Overcast 200 ft
2022/05/20 04:51 KBDL 200451Z 17007KT 1/4SM R06/3000V4000FT BR OVC002 12/11 A2985 RMK AO2 SFC VIS 2 1/2 SLP106 T01170111 401610117
KSNC - Chester, Connecticut, USA
Distance from station: SSE 24mi, 38km
Updated: Fri, 05/20/22 12:55am EDT
Fog, Overcast
Fog, Overcast
 Wind from calm
Wind: Calm
Temperature: 50°F , 10°C
Dew Point: 50°F , 10°C
Humidity: 100%
Barometer: 29.86 inHg , 1011.2 hPa
Summary: Fog
Clouds: Overcast
Visibility: less than 1/4 mile , 0.4 km
Cloud details: Overcast 100 ft
2022/05/20 04:55 KSNC 200455Z AUTO 00000KT M1/4SM FG OVC001 10/10 A2986 RMK AO2
 
KOXC - Oxford/Waterbury, Connecticut, USA
Distance from station: SW 26mi, 42km
Updated: Fri, 05/20/22 12:53am EDT
Mist, Few clouds
Mist, Few clouds
 Wind from calm
Wind: Calm
Temperature: 48°F , 9°C
Dew Point: 48°F , 9°C
Humidity: 100%
Barometer: 29.87 inHg , 1011.5 hPa
Summary: Mist
Clouds: Few Clouds
Visibility: 1 3/4 miles , 2.8 km
Cloud details: Few Clouds 700 ft
2022/05/20 04:53 KOXC 200453Z AUTO 00000KT 1 3/4SM BR FEW007 09/09 A2987 RMK AO2 VIS 3/4V5
KIJD - Willimantic, Connecticut, USA
Distance from station: E 28mi, 45km
Updated: Fri, 05/20/22 12:52am EDT
Overcast
Overcast
 Wind from SW
Wind: SW 3 mph , 6 km/h
Temperature: 54°F , 12°C
Dew Point: 52°F , 11°C
Humidity: 94%
Barometer: 29.85 inHg , 1010.8 hPa
Clouds: Overcast
Visibility: 8 miles , 13 km
Cloud details: Overcast 400 ft
2022/05/20 04:52 KIJD 200452Z AUTO 23003KT 8SM OVC004 12/11 A2985 RMK AO2 SLP109 T01170111 401440111 TSNO
 
KHVN - New Haven/Tweed, Connecticut, USA
Distance from station: SSW 30mi, 48km
Updated: Fri, 05/20/22 12:53am EDT
Mist, Overcast
Mist, Overcast
 Wind from calm
Wind: Calm
Temperature: 52°F , 11°C
Dew Point: 50°F , 10°C
Humidity: 94%
Barometer: 29.86 inHg , 1011.2 hPa
Summary: Mist
Clouds: Overcast
Visibility: 3 miles , 5 km
Cloud details: Overcast 400 ft
2022/05/20 04:53 KHVN 200453Z AUTO 00000KT 3SM BR OVC004 11/10 A2986 RMK AO2 CIG 002V005 SLP112 T01110100 401560100
KBAF - Westfield, Massachusetts, USA
Distance from station: 0 33mi, 54km
Updated: Fri, 05/20/22 12:53am EDT
Mist, Clear
Mist, Clear
 Wind from S
Wind: S 3 mph , 6 km/h
Temperature: 48°F , 9°C
Dew Point: 48°F , 9°C
Humidity: 100%
Barometer: 29.83 inHg , 1010.2 hPa
Summary: Mist
Clouds: Clear
Visibility: 5 miles , 8 km
2022/05/20 04:53 KBAF 200453Z AUTO 17003KT 5SM BR CLR 09/09 A2983 RMK AO2 SLP104 T00940089 401440094 TSNO
 
KCEF - Chicopee/Westove, Massachusetts, USA
Distance from station: NNE 37mi, 60km
Updated: Fri, 05/20/22 12:56am EDT
Clear
Clear
 Wind from SSW
Wind: SSW 3 mph , 6 km/h
Temperature: 52°F , 11°C
Dew Point: 52°F , 11°C
Humidity: 100%
Barometer: 29.83 inHg , 1010.2 hPa
Clouds: Clear
Visibility: 10 miles , 16 km
2022/05/20 04:56 KCEF 200456Z AUTO 21003KT 10SM CLR 11/11 A2983 RMK AO2 SLP108 T01090109 401520101
KBDR - Bridgeport, Connecticut, USA
Distance from station: SSW 42mi, 67km
Updated: Fri, 05/20/22 12:52am EDT
Mist, Overcast
Mist, Overcast
 Wind from calm
Wind: Calm
Temperature: 54°F , 12°C
Dew Point: 52°F , 11°C
Humidity: 94%
Barometer: 29.87 inHg , 1011.5 hPa
Summary: Mist
Clouds: Overcast
Visibility: 5 miles , 8 km
Cloud details: Overcast 700 ft
2022/05/20 04:52 KBDR 200452Z AUTO 00000KT 5SM BR OVC007 12/11 A2987 RMK AO2 SLP113 T01170111 401500111
 
KGON - Groton/New Londo, Connecticut, USA
Distance from station: SE 42mi, 68km
Updated: Thu, 05/19/22 11:56pm EDT
Overcast
Overcast
 Wind from calm
Wind: Calm
Temperature: 54°F , 12°C
Dew Point: 50°F , 10°C
Humidity: 88%
Barometer: 29.85 inHg , 1010.8 hPa
Clouds: Overcast
Visibility: 10 miles , 16 km
Cloud details: Overcast 800 ft
2022/05/20 03:56 KGON 200356Z AUTO 00000KT 10SM OVC008 12/10 A2985 RMK AO2 SLP107 T01220100
KDXR - Danbury, Connecticut, USA
Distance from station: WSW 45mi, 73km
Updated: Fri, 05/20/22 12:53am EDT
Fog, Overcast
Fog, Overcast
 Wind from calm
Wind: Calm
Temperature: 54°F , 12°C
Dew Point: 52°F , 11°C
Humidity: 94%
Barometer: 29.88 inHg , 1011.9 hPa
Summary: Fog
Clouds: Overcast
Visibility: 1/2 mile , 0.8 km
Cloud details: Overcast 200 ft
2022/05/20 04:53 KDXR 200453Z AUTO 00000KT 1/2SM FG OVC002 12/11 A2988 RMK AO2 SLP116 T01170106 401780111